createdAt,value
2022-11-05T00:00:37.608Z,17.58
2022-11-05T00:03:23.946Z,21.88
2022-11-05T00:06:12.667Z,20.75
2022-11-05T00:08:59.748Z,23.63
2022-11-05T00:11:45.575Z,29.70
2022-11-05T00:14:31.603Z,31.15
2022-11-05T00:16:58.893Z,25.13
2022-11-05T00:19:25.911Z,27.20
2022-11-05T00:22:11.671Z,32.90
2022-11-05T00:24:57.375Z,25.42
2022-11-05T00:27:24.653Z,25.15
2022-11-05T00:29:52.225Z,28.70
2022-11-05T00:32:19.442Z,27.50
2022-11-05T00:34:46.476Z,32.25
2022-11-05T00:37:13.647Z,29.55
2022-11-05T00:39:43.959Z,28.33
2022-11-05T00:42:32.729Z,27.15
2022-11-05T00:45:02.630Z,24.15
2022-11-05T00:47:49.930Z,28.33
2022-11-05T00:50:17.615Z,34.97
2022-11-05T00:52:56.896Z,23.48
2022-11-05T00:55:29.669Z,25.38
2022-11-05T00:57:57.895Z,30.77
2022-11-05T01:00:27.093Z,26.95
2022-11-05T01:02:57.146Z,35.05
2022-11-05T01:05:24.467Z,32.78
2022-11-05T01:07:53.287Z,29.70
2022-11-05T01:10:21.454Z,34.00
2022-11-05T01:12:48.554Z,22.73
2022-11-05T01:15:16.248Z,20.77
2022-11-05T01:17:43.280Z,17.42
2022-11-05T01:20:11.279Z,19.83
2022-11-05T01:22:38.368Z,12.15
2022-11-05T01:25:07.736Z,16.88
2022-11-05T01:27:36.863Z,16.75
2022-11-05T01:30:06.223Z,8.98
2022-11-05T01:32:35.236Z,17.85
2022-11-05T01:35:03.836Z,9.52
2022-11-05T01:37:30.965Z,11.43
2022-11-05T01:39:58.504Z,14.20
2022-11-05T01:42:27.275Z,12.07
2022-11-05T01:45:02.712Z,9.68
2022-11-05T01:47:58.026Z,9.23
2022-11-05T01:50:51.679Z,9.23
2022-11-05T01:53:39.522Z,9.60
2022-11-05T01:56:11.815Z,9.65
2022-11-05T01:58:49.885Z,6.57
2022-11-05T02:01:18.310Z,8.43
2022-11-05T02:03:47.170Z,6.70
2022-11-05T02:06:16.854Z,5.22
2022-11-05T02:09:04.047Z,8.23
2022-11-05T02:11:31.382Z,6.88
2022-11-05T02:13:59.874Z,9.88
2022-11-05T02:16:46.837Z,4.30
2022-11-05T02:19:30.738Z,4.75
2022-11-05T02:22:12.969Z,3.38
2022-11-05T02:24:48.764Z,6.72
2022-11-05T02:27:54.104Z,3.75
2022-11-05T02:30:39.306Z,3.92
2022-11-05T02:33:25.053Z,3.72
2022-11-05T02:36:04.567Z,4.70
2022-11-05T02:38:36.520Z,4.43
2022-11-05T02:41:22.711Z,3.40
2022-11-05T02:44:17.768Z,4.05
2022-11-05T02:47:07.125Z,4.05
2022-11-05T02:50:03.402Z,4.45
2022-11-05T02:52:59.299Z,3.55
2022-11-05T02:55:36.479Z,7.47
2022-11-05T02:58:07.027Z,7.00
2022-11-05T03:00:58.076Z,4.40
2022-11-05T03:03:35.096Z,6.10
2022-11-05T03:06:07.971Z,4.72
2022-11-05T03:08:44.104Z,4.72
2022-11-05T03:11:20.272Z,3.20
2022-11-05T03:14:11.562Z,2.95
2022-11-05T03:16:38.704Z,6.22
2022-11-05T03:19:43.187Z,5.30
2022-11-05T03:22:29.309Z,4.43
2022-11-05T03:25:02.783Z,6.55
2022-11-05T03:27:34.773Z,5.25
2022-11-05T03:30:05.619Z,4.25
2022-11-05T03:32:36.624Z,4.00
2022-11-05T03:35:14.783Z,3.78
2022-11-05T03:37:45.056Z,4.13
2022-11-05T03:40:14.915Z,1.98
2022-11-05T03:42:47.038Z,4.53
2022-11-05T03:45:27.946Z,5.07
2022-11-05T03:47:59.095Z,4.22
2022-11-05T03:50:44.126Z,7.50
2022-11-05T03:53:18.963Z,2.70
2022-11-05T03:56:13.065Z,3.85
2022-11-05T03:58:47.952Z,2.67
2022-11-05T04:01:15.808Z,2.85
2022-11-05T04:03:42.884Z,5.57
2022-11-05T04:06:29.386Z,3.60
2022-11-05T04:09:14.899Z,3.50
2022-11-05T04:12:00.486Z,2.33
2022-11-05T04:14:27.633Z,3.25
2022-11-05T04:17:28.382Z,2.90
2022-11-05T04:20:14.976Z,5.47
2022-11-05T04:23:00.442Z,6.28
2022-11-05T04:25:27.603Z,3.63
2022-11-05T04:28:00.169Z,9.40
2022-11-05T04:30:27.342Z,5.18
2022-11-05T04:33:00.302Z,5.15
2022-11-05T04:35:29.992Z,3.58
2022-11-05T04:37:57.190Z,3.92
2022-11-05T04:40:25.026Z,4.38
2022-11-05T04:42:54.429Z,4.85
2022-11-05T04:45:23.488Z,5.93
2022-11-05T04:47:50.637Z,7.72
2022-11-05T04:50:18.066Z,6.55
2022-11-05T04:52:45.283Z,4.43
2022-11-05T04:55:12.488Z,4.15
2022-11-05T04:57:39.565Z,5.10
2022-11-05T05:00:08.716Z,5.05
2022-11-05T05:02:36.377Z,5.45
2022-11-05T05:05:04.814Z,7.25
2022-11-05T05:07:33.225Z,5.30
2022-11-05T05:10:01.625Z,5.15
2022-11-05T05:12:29.179Z,5.95
2022-11-05T05:14:56.237Z,4.40
2022-11-05T05:17:24.460Z,7.35
2022-11-05T05:20:10.347Z,7.10
2022-11-05T05:22:39.914Z,7.03
2022-11-05T05:25:07.542Z,4.78
2022-11-05T05:27:34.626Z,8.52
2022-11-05T05:30:03.715Z,10.25
2022-11-05T05:32:30.852Z,10.15
2022-11-05T05:35:00.135Z,6.45
2022-11-05T05:37:27.321Z,6.30
2022-11-05T05:39:54.477Z,6.05
2022-11-05T05:42:23.103Z,8.45
2022-11-05T05:44:50.178Z,5.32
2022-11-05T05:47:17.410Z,4.50
2022-11-05T05:49:44.481Z,3.20
2022-11-05T05:52:11.803Z,6.20
2022-11-05T05:54:42.652Z,6.45
2022-11-05T05:57:10.637Z,5.30
2022-11-05T05:59:37.724Z,4.18
2022-11-05T06:02:05.869Z,8.32
2022-11-05T06:04:33.046Z,10.98
2022-11-05T06:07:00.211Z,5.03
2022-11-05T06:09:27.284Z,5.70
2022-11-05T06:11:54.522Z,6.88
2022-11-05T06:14:21.717Z,6.90
2022-11-05T06:16:48.805Z,8.13
2022-11-05T06:19:16.078Z,6.47
2022-11-05T06:21:43.210Z,5.95
2022-11-05T06:24:10.569Z,6.88
2022-11-05T06:26:42.964Z,8.05
2022-11-05T06:29:10.827Z,6.87
2022-11-05T06:31:37.988Z,2.97
2022-11-05T06:34:05.122Z,6.07
2022-11-05T06:36:32.478Z,7.35
2022-11-05T06:38:59.759Z,7.20
2022-11-05T06:41:27.108Z,5.30
2022-11-05T06:43:54.238Z,10.32
2022-11-05T06:46:21.923Z,6.43
2022-11-05T06:48:48.973Z,7.40
2022-11-05T06:51:16.329Z,7.10
2022-11-05T06:53:43.383Z,5.80
2022-11-05T06:56:10.620Z,6.22
2022-11-05T06:58:37.810Z,4.63
2022-11-05T07:01:10.656Z,6.65
2022-11-05T07:03:39.980Z,5.50
2022-11-05T07:06:08.059Z,6.30
2022-11-05T07:08:37.199Z,5.57
2022-11-05T07:11:04.654Z,3.63
2022-11-05T07:13:32.047Z,5.07
2022-11-05T07:15:59.433Z,4.30
2022-11-05T07:18:28.950Z,7.25
2022-11-05T07:20:56.163Z,6.72
2022-11-05T07:23:23.257Z,6.22
2022-11-05T07:25:50.832Z,5.32
2022-11-05T07:28:18.375Z,6.88
2022-11-05T07:30:45.703Z,5.07
2022-11-05T07:33:13.403Z,5.00
2022-11-05T07:35:40.939Z,6.00
2022-11-05T07:38:08.994Z,5.80
2022-11-05T07:40:36.232Z,6.55
2022-11-05T07:43:04.077Z,5.82
2022-11-05T07:45:31.952Z,6.10
2022-11-05T07:48:04.097Z,6.07
2022-11-05T07:50:36.827Z,2.33
2022-11-05T07:53:06.888Z,4.25
2022-11-05T07:55:34.630Z,5.53
2022-11-05T07:58:02.133Z,6.28
2022-11-05T08:00:30.244Z,6.85
2022-11-05T08:03:09.268Z,7.15
2022-11-05T08:05:40.120Z,6.22
2022-11-05T08:08:09.404Z,4.07
2022-11-05T08:10:38.025Z,6.05
2022-11-05T08:13:06.638Z,4.78
2022-11-05T08:15:34.421Z,5.03
2022-11-05T08:18:07.165Z,4.57
2022-11-05T08:20:35.177Z,5.53
2022-11-05T08:23:02.385Z,5.95
2022-11-05T08:25:29.826Z,3.97
2022-11-05T08:28:08.987Z,2.85
2022-11-05T08:30:36.774Z,3.92
2022-11-05T08:33:10.076Z,4.65
2022-11-05T08:35:38.372Z,5.05
2022-11-05T08:38:07.958Z,5.32
2022-11-05T08:40:36.925Z,4.45
2022-11-05T08:43:07.122Z,7.10
2022-11-05T08:45:38.209Z,5.20
2022-11-05T08:48:17.251Z,8.20
2022-11-05T08:50:47.892Z,5.05
2022-11-05T08:53:16.149Z,3.85
2022-11-05T08:55:44.407Z,9.00
2022-11-05T08:58:15.541Z,5.22
2022-11-05T09:00:44.374Z,7.78
2022-11-05T09:03:12.768Z,6.00
2022-11-05T09:05:41.665Z,5.15
2022-11-05T09:08:12.115Z,5.88
2022-11-05T09:10:42.784Z,4.45
2022-11-05T09:13:17.893Z,7.50
2022-11-05T09:15:45.982Z,6.63
2022-11-05T09:18:14.253Z,5.07
2022-11-05T09:20:41.820Z,4.25
2022-11-05T09:23:11.464Z,7.15
2022-11-05T09:25:40.211Z,4.75
2022-11-05T09:28:11.377Z,4.55
2022-11-05T09:30:47.973Z,6.18
2022-11-05T09:35:43.287Z,3.72
2022-11-05T09:38:10.461Z,5.75
2022-11-05T09:41:08.983Z,6.70
2022-11-05T09:43:58.238Z,9.32
2022-11-05T09:46:28.600Z,15.15
2022-11-05T09:49:05.372Z,4.68
2022-11-05T09:51:33.380Z,4.63
2022-11-05T09:54:03.072Z,6.60
2022-11-05T09:56:33.270Z,6.68
2022-11-05T09:59:18.663Z,4.75
2022-11-05T10:01:47.387Z,6.15
2022-11-05T10:04:28.147Z,7.32
2022-11-05T10:07:01.293Z,6.55
2022-11-05T10:12:05.807Z,7.35
2022-11-05T10:14:39.372Z,5.25
2022-11-05T10:17:18.488Z,6.03
2022-11-05T10:19:51.250Z,4.07
2022-11-05T10:22:19.886Z,5.95
2022-11-05T10:24:51.237Z,4.13
2022-11-05T10:27:32.301Z,5.85
2022-11-05T10:30:00.439Z,5.00
2022-11-05T10:32:37.711Z,6.35
2022-11-05T10:35:07.227Z,4.93
2022-11-05T10:37:40.536Z,5.03
2022-11-05T10:40:39.995Z,4.55
2022-11-05T10:43:10.503Z,2.30
2022-11-05T10:45:40.937Z,4.22
2022-11-05T10:48:39.417Z,4.05
2022-11-05T10:51:11.072Z,4.03
2022-11-05T10:53:39.976Z,3.08
2022-11-05T10:56:37.834Z,3.67
2022-11-05T10:59:18.962Z,3.60
2022-11-05T11:01:46.924Z,7.45
2022-11-05T11:04:20.751Z,5.57
2022-11-05T11:06:52.793Z,4.82
2022-11-05T11:09:24.469Z,4.32
2022-11-05T11:11:59.757Z,4.75
2022-11-05T11:14:29.907Z,5.47
2022-11-05T11:17:18.201Z,5.03
2022-11-05T11:19:45.376Z,2.53
2022-11-05T11:22:16.996Z,5.90
2022-11-05T11:24:47.988Z,6.15
2022-11-05T11:27:20.458Z,4.60
2022-11-05T11:29:56.983Z,4.85
2022-11-05T11:32:28.787Z,4.45
2022-11-05T11:34:58.472Z,5.63
2022-11-05T11:37:29.996Z,6.07
2022-11-05T11:40:19.490Z,5.18
2022-11-05T11:42:51.042Z,5.55
2022-11-05T11:45:24.430Z,4.30
2022-11-05T11:47:51.886Z,5.13
2022-11-05T11:50:39.007Z,6.10
2022-11-05T11:53:21.150Z,4.40
2022-11-05T11:56:16.794Z,6.82
2022-11-05T11:58:43.931Z,3.63
2022-11-05T12:01:27.812Z,7.20
2022-11-05T12:04:00.320Z,8.80
2022-11-05T12:06:43.746Z,11.63
2022-11-05T12:09:25.840Z,10.15
2022-11-05T12:12:07.771Z,6.43
2022-11-05T12:14:55.043Z,6.18
2022-11-05T12:17:43.217Z,6.20
2022-11-05T12:20:16.144Z,8.20
2022-11-05T12:23:01.374Z,10.07
2022-11-05T12:25:28.606Z,8.15
2022-11-05T12:28:14.119Z,3.35
2022-11-05T12:30:53.363Z,3.08
2022-11-05T12:33:20.509Z,3.65
2022-11-05T12:35:58.325Z,2.83
2022-11-05T12:39:01.833Z,3.55
2022-11-05T12:41:43.907Z,4.07
2022-11-05T12:44:26.332Z,1.65
2022-11-05T12:47:29.713Z,3.67
2022-11-05T12:50:11.454Z,1.38
2022-11-05T12:52:50.745Z,1.25
2022-11-05T12:55:24.297Z,2.40
2022-11-05T12:57:59.243Z,1.00
2022-11-05T13:00:30.184Z,3.60
2022-11-05T13:03:23.265Z,2.28
2022-11-05T13:06:10.383Z,3.30
2022-11-05T13:08:45.125Z,3.40
2022-11-05T13:11:30.752Z,6.25
2022-11-05T13:14:38.994Z,2.10
2022-11-05T13:17:22.931Z,5.88
2022-11-05T13:20:17.390Z,4.78
2022-11-05T13:22:49.635Z,2.65
2022-11-05T13:25:22.366Z,1.58
2022-11-05T13:28:22.304Z,8.05
2022-11-05T13:30:55.224Z,4.43
2022-11-05T13:33:31.384Z,2.72
2022-11-05T13:36:28.158Z,4.15
2022-11-05T13:39:14.131Z,5.68
2022-11-05T13:41:55.087Z,9.20
2022-11-05T13:44:43.059Z,5.72
2022-11-05T13:47:16.900Z,2.42
2022-11-05T13:50:09.143Z,5.20
2022-11-05T13:53:01.168Z,5.00
2022-11-05T13:55:47.068Z,8.15
2022-11-05T13:58:14.217Z,5.70
2022-11-05T14:00:58.464Z,6.82
2022-11-05T14:03:28.325Z,6.55
2022-11-05T14:06:04.898Z,7.38
2022-11-05T14:08:45.242Z,5.13
2022-11-05T14:11:18.571Z,7.13
2022-11-05T14:13:47.204Z,6.00
2022-11-05T14:16:20.988Z,3.38
2022-11-05T14:19:15.093Z,5.43
2022-11-05T14:22:27.236Z,5.22
2022-11-05T14:24:54.341Z,10.13
2022-11-05T14:27:21.572Z,1.33
2022-11-05T14:29:50.221Z,6.82
2022-11-05T14:32:17.319Z,3.50
2022-11-05T14:34:50.002Z,3.33
2022-11-05T14:37:22.632Z,3.40
2022-11-05T14:39:50.499Z,7.38
2022-11-05T14:42:28.321Z,4.35
2022-11-05T14:45:08.677Z,3.30
2022-11-05T14:47:43.629Z,5.40
2022-11-05T14:50:20.218Z,3.78
2022-11-05T14:52:57.071Z,2.30
2022-11-05T14:55:35.184Z,4.35
2022-11-05T14:58:06.991Z,3.33
2022-11-05T15:00:40.725Z,4.15
2022-11-05T15:03:34.646Z,7.80
2022-11-05T15:06:20.437Z,3.55
2022-11-05T15:08:50.606Z,3.15
2022-11-05T15:11:24.375Z,3.67
2022-11-05T15:13:54.419Z,6.07
2022-11-05T15:16:37.068Z,3.88
2022-11-05T15:19:05.657Z,5.87
2022-11-05T15:21:36.585Z,4.55
2022-11-05T15:24:05.014Z,2.72
2022-11-05T15:26:41.786Z,3.33
2022-11-05T15:29:22.353Z,4.95
2022-11-05T15:31:51.131Z,3.88
2022-11-05T15:34:27.119Z,4.72
2022-11-05T15:36:57.896Z,5.72
2022-11-05T15:39:40.575Z,5.10
2022-11-05T15:42:14.626Z,5.23
2022-11-05T15:44:44.153Z,4.20
2022-11-05T15:47:19.232Z,2.30
2022-11-05T15:49:50.950Z,4.70
2022-11-05T15:52:21.373Z,2.08
2022-11-05T15:55:08.978Z,2.10
2022-11-05T15:57:40.043Z,2.15
2022-11-05T16:00:17.862Z,2.22
2022-11-05T16:02:54.468Z,3.60
2022-11-05T16:05:22.670Z,3.38
2022-11-05T16:07:50.891Z,1.90
2022-11-05T16:10:24.769Z,4.28
2022-11-05T16:12:52.473Z,2.22
2022-11-05T16:15:25.913Z,3.53
2022-11-05T16:20:34.753Z,1.48
2022-11-05T16:23:23.491Z,2.03
2022-11-05T16:25:52.369Z,4.50
2022-11-05T16:28:29.293Z,5.72
2022-11-05T16:31:04.682Z,5.55
2022-11-05T16:33:35.543Z,5.38
2022-11-05T16:36:02.760Z,6.00
2022-11-05T16:38:30.734Z,7.07
2022-11-05T16:41:00.525Z,6.72
2022-11-05T16:43:27.932Z,10.95
2022-11-05T16:45:58.265Z,13.70
2022-11-05T16:48:26.270Z,12.25
2022-11-05T16:50:54.203Z,7.53
2022-11-05T16:53:21.490Z,9.43
2022-11-05T16:55:48.888Z,7.82
2022-11-05T16:58:22.114Z,11.68
2022-11-05T17:00:51.707Z,9.65
2022-11-05T17:03:18.985Z,14.65
2022-11-05T17:05:46.594Z,14.35
2022-11-05T17:08:14.147Z,12.55
2022-11-05T17:10:41.603Z,12.07
2022-11-05T17:13:14.415Z,12.63
2022-11-05T17:15:43.936Z,13.43
2022-11-05T17:18:17.916Z,10.75
2022-11-05T17:20:51.451Z,12.07
2022-11-05T17:23:21.921Z,14.70
2022-11-05T17:25:55.282Z,21.67
2022-11-05T17:28:23.133Z,8.30
2022-11-05T17:30:53.119Z,10.23
2022-11-05T17:33:23.162Z,9.32
2022-11-05T17:35:51.822Z,7.55
2022-11-05T17:38:20.421Z,6.03
2022-11-05T17:40:48.199Z,9.43
2022-11-05T17:43:16.107Z,8.35
2022-11-05T17:45:49.486Z,9.15
2022-11-05T17:50:47.201Z,9.70
2022-11-05T17:53:16.597Z,9.50
2022-11-05T17:55:45.553Z,11.75
2022-11-05T17:58:13.587Z,10.68
2022-11-05T18:00:42.045Z,13.13
2022-11-05T18:03:11.333Z,16.88
2022-11-05T18:05:41.259Z,13.77
2022-11-05T18:08:09.239Z,11.13
2022-11-05T18:10:38.148Z,8.77
2022-11-05T18:13:05.568Z,9.80
2022-11-05T18:15:32.894Z,7.45
2022-11-05T18:18:00.254Z,10.50
2022-11-05T18:20:27.503Z,5.80
2022-11-05T18:22:54.693Z,8.90
2022-11-05T18:25:21.934Z,9.35
2022-11-05T18:27:49.014Z,7.05
2022-11-05T18:30:16.468Z,6.65
2022-11-05T18:32:44.551Z,6.38
2022-11-05T18:35:13.534Z,9.48
2022-11-05T18:37:41.556Z,12.57
2022-11-05T18:40:09.127Z,9.68
2022-11-05T18:42:36.655Z,16.25
2022-11-05T18:45:05.388Z,11.32
2022-11-05T18:47:33.855Z,20.17
2022-11-05T18:50:01.643Z,13.90
2022-11-05T18:52:31.772Z,8.23
2022-11-05T18:54:59.733Z,10.05
2022-11-05T18:57:27.343Z,9.80
2022-11-05T18:59:54.510Z,12.13
2022-11-05T19:02:21.975Z,14.70
2022-11-05T19:05:13.809Z,16.40
2022-11-05T19:07:38.128Z,14.27
2022-11-05T19:10:06.313Z,18.23
2022-11-05T19:12:35.680Z,12.40
2022-11-05T19:15:03.290Z,14.13
2022-11-05T19:17:32.962Z,14.18
2022-11-05T19:20:00.481Z,12.85
2022-11-05T19:22:28.097Z,10.75
2022-11-05T19:24:55.208Z,16.88
2022-11-05T19:27:22.544Z,22.05
2022-11-05T19:29:49.673Z,24.50
2022-11-05T19:32:16.981Z,29.00
2022-11-05T19:34:44.174Z,19.60
2022-11-05T19:37:12.690Z,22.73
2022-11-05T19:39:41.403Z,21.95
2022-11-05T19:42:08.448Z,7.32
2022-11-05T19:44:35.669Z,10.65
2022-11-05T19:47:03.088Z,16.08
2022-11-05T19:49:30.239Z,19.42
2022-11-05T19:51:57.575Z,17.10
2022-11-05T19:54:26.342Z,13.00
2022-11-05T19:56:53.528Z,6.65
2022-11-05T19:59:20.668Z,9.50
2022-11-05T20:01:48.291Z,10.57
2022-11-05T20:04:15.577Z,9.13
2022-11-05T20:06:42.739Z,7.50
2022-11-05T20:09:21.557Z,10.93
2022-11-05T20:11:50.346Z,15.27
2022-11-05T20:14:17.658Z,7.68
2022-11-05T20:16:45.877Z,6.45
2022-11-05T20:19:18.646Z,10.05
2022-11-05T20:21:46.833Z,11.38
2022-11-05T20:24:22.290Z,13.35
2022-11-05T20:26:52.678Z,11.93
2022-11-05T20:29:19.843Z,22.73
2022-11-05T20:31:47.899Z,10.73
2022-11-05T20:34:15.108Z,5.07
2022-11-05T20:36:42.288Z,3.13
2022-11-05T20:39:10.798Z,3.25
2022-11-05T20:41:38.255Z,3.78
2022-11-05T20:44:05.530Z,3.58
2022-11-05T20:46:33.190Z,5.93
2022-11-05T20:49:00.413Z,3.95
2022-11-05T20:51:30.688Z,5.43
2022-11-05T20:54:01.402Z,5.05
2022-11-05T20:56:31.694Z,5.55
2022-11-05T20:59:00.325Z,4.13
2022-11-05T21:01:29.855Z,3.33
2022-11-05T21:03:57.504Z,3.92
2022-11-05T21:06:24.643Z,5.63
2022-11-05T21:08:52.907Z,4.50
2022-11-05T21:11:20.982Z,4.68
2022-11-05T21:13:48.831Z,6.90
2022-11-05T21:16:18.592Z,6.07
2022-11-05T21:18:46.904Z,4.80
2022-11-05T21:21:20.393Z,7.28
2022-11-05T21:23:48.125Z,6.10
2022-11-05T21:26:17.017Z,8.98
2022-11-05T21:28:44.404Z,7.22
2022-11-05T21:31:11.641Z,7.10
2022-11-05T21:33:39.104Z,7.43
2022-11-05T21:36:11.335Z,6.35
2022-11-05T21:38:39.005Z,7.72
2022-11-05T21:41:07.333Z,5.50
2022-11-05T21:43:34.953Z,6.55
2022-11-05T21:46:03.358Z,4.97
2022-11-05T21:48:31.243Z,4.60
2022-11-05T21:51:16.887Z,8.32
2022-11-05T21:54:02.614Z,5.68
2022-11-05T21:56:48.710Z,5.63
2022-11-05T21:59:37.356Z,8.45
2022-11-05T22:02:05.399Z,5.43
2022-11-05T22:04:35.050Z,5.82
2022-11-05T22:07:03.127Z,4.75
2022-11-05T22:09:30.322Z,4.45
2022-11-05T22:11:57.800Z,6.28
2022-11-05T22:14:26.465Z,4.70
2022-11-05T22:16:53.747Z,5.63
2022-11-05T22:19:21.151Z,3.33
2022-11-05T22:21:48.373Z,5.07
2022-11-05T22:24:15.735Z,6.13
2022-11-05T22:26:43.700Z,5.35
2022-11-05T22:29:12.212Z,4.03
2022-11-05T22:31:40.190Z,8.35
2022-11-05T22:34:07.831Z,4.80
2022-11-05T22:36:36.115Z,5.82
2022-11-05T22:39:05.325Z,3.20
2022-11-05T22:41:32.737Z,3.10
2022-11-05T22:43:59.889Z,4.13
2022-11-05T22:46:27.718Z,3.60
2022-11-05T22:48:56.329Z,3.13
2022-11-05T22:51:25.975Z,2.10
2022-11-05T22:53:54.971Z,1.58
2022-11-05T22:56:24.379Z,2.58
2022-11-05T22:58:52.078Z,3.05
2022-11-05T23:01:22.485Z,1.48
2022-11-05T23:03:51.900Z,2.72
2022-11-05T23:06:40.230Z,4.35
2022-11-05T23:09:33.590Z,4.40
2022-11-05T23:12:01.999Z,2.92
2022-11-05T23:14:29.761Z,2.53
2022-11-05T23:17:15.336Z,3.13
2022-11-05T23:20:01.023Z,1.88
2022-11-05T23:22:48.396Z,2.20
2022-11-05T23:25:19.009Z,2.72
2022-11-05T23:27:48.980Z,2.58
2022-11-05T23:30:22.955Z,1.63
2022-11-05T23:32:50.950Z,1.42
2022-11-05T23:35:18.344Z,2.25
2022-11-05T23:38:03.917Z,2.80
2022-11-05T23:40:52.014Z,2.72
2022-11-05T23:43:37.917Z,2.28
2022-11-05T23:46:23.448Z,3.05
2022-11-05T23:48:50.926Z,5.82
2022-11-05T23:51:18.332Z,6.95
2022-11-05T23:53:45.428Z,3.53
2022-11-05T23:56:14.697Z,10.40
2022-11-05T23:58:42.633Z,7.25
